HSOB

El Obeid Airport

Al-Ubayyid, Sudan
METAR HSOB 230800Z 04003KT CAVOK 36/01 Q1009
Observed Flight Rules
Feb-23 @ 08:00 UTC (2 hours ago) Visual Flight Rules
Wind Visibility Clouds
40° at 3 knots 10,000+ meters
  • Clear skies
Temperatures Readings
Current 36°C / 97°F
Dewpoint 1°C / 34°F
Humidity 11%
Altimeter 29.79" Hg
Pressure 1009 hPa
Elevation 574
METAR HSOB 230800Z 04003KT CAVOK 36/01 Q1009
Observed Flight Rules
Feb-23 @ 08:00 UTC
(2 hours ago)
VFR
Wind Visibility
40° at 3 knots 10,000+ meters
Clouds
  • Clear skies
Temperature Dewpoint
36°C / 97°F 1°C / 34°F
Humidity Altimeter Pressure
11% 29.79" Hg 1009 hPa